Air Tahiti Virtual
Air Tahiti Virtual

Ia orana e maeva

Welcome on the Air Tahiti VIRTUAL website ! We are a Virtual Airline (VA) based in French Polynesia, on the IVAO international network.
Our fleet consists of ATR 42 and 72-600, Beech 200 and Twin Otter (in our subsidiary Air Archipels), and it covers all the French Polynesian territory. Our pilots use different flight simulators such as Microsoft Flight Simulator (2004 and X), Prepar3D and X-Plane. We encourage beginners and experienced pilots to join us. At Air Tahiti VIRTUAL, you can have a virtual career as an airline pilot, simulating real flights with Air Tahiti, obtaining a virtual salary, promotions ... all in a very good atmosphere of tropical islands! Our guidelines are the respect, friendship, fun and passion.
Our virtual airline has no connection with the real Air Tahiti company or its subsidiary Air Archipels. However we thank for allowing us to use their name and logo to satisfy our passion for flight simulation in French Polynesia.
Click on the tab "About" to continue your visit !
 Air Tahiti Virtual
Login
Callsign
Password
 
Want to join us ? Clic here | Forgot password ?
Z
2020/05/26 06:00 NTAA 260600Z 05006KT 020V080 9999 FEW020TCU BKN260 26/23 Q1015 TEMPO 05020G30KT 1400 TSRA FEW011 SCT014CB BKN040
News